sensor_id;sensor_type;location;lat;lon;timestamp;pressure;altitude;pressure_sealevel;temperature;humidity
33625;BME280;19962;47.820;1.930;2023-03-03T00:00:42;100926.66;;;8.43;56.77
33625;BME280;19962;47.820;1.930;2023-03-03T00:03:10;100920.13;;;8.44;56.72
33625;BME280;19962;47.820;1.930;2023-03-03T00:05:37;100914.66;;;8.51;56.57
33625;BME280;19962;47.820;1.930;2023-03-03T00:08:03;100917.19;;;8.52;56.26
33625;BME280;19962;47.820;1.930;2023-03-03T00:10:30;100925.63;;;8.57;56.15
33625;BME280;19962;47.820;1.930;2023-03-03T00:12:56;100908.59;;;8.49;56.10
33625;BME280;19962;47.820;1.930;2023-03-03T00:15:23;100909.19;;;8.44;56.71
33625;BME280;19962;47.820;1.930;2023-03-03T00:17:51;100907.50;;;8.43;56.41
33625;BME280;19962;47.820;1.930;2023-03-03T00:20:36;100902.25;;;8.42;56.19
33625;BME280;19962;47.820;1.930;2023-03-03T00:23:18;100908.56;;;8.42;56.26
33625;BME280;19962;47.820;1.930;2023-03-03T00:25:49;100910.06;;;8.51;56.40
33625;BME280;19962;47.820;1.930;2023-03-03T00:28:30;100924.56;;;8.58;55.93
33625;BME280;19962;47.820;1.930;2023-03-03T00:30:59;100921.41;;;8.61;55.99
33625;BME280;19962;47.820;1.930;2023-03-03T00:33:33;100918.03;;;8.66;55.62
33625;BME280;19962;47.820;1.930;2023-03-03T00:39:36;100926.88;;;8.61;55.50
33625;BME280;19962;47.820;1.930;2023-03-03T00:42:15;100926.47;;;8.64;55.57
33625;BME280;19962;47.820;1.930;2023-03-03T00:44:47;100931.09;;;8.57;55.67
33625;BME280;19962;47.820;1.930;2023-03-03T00:52:35;100929.44;;;8.69;55.42
33625;BME280;19962;47.820;1.930;2023-03-03T00:55:02;100929.22;;;8.64;55.51
33625;BME280;19962;47.820;1.930;2023-03-03T00:57:29;100926.69;;;8.56;55.66
33625;BME280;19962;47.820;1.930;2023-03-03T00:59:56;100927.09;;;8.53;55.85
33625;BME280;19962;47.820;1.930;2023-03-03T01:02:22;100923.94;;;8.50;55.94
33625;BME280;19962;47.820;1.930;2023-03-03T01:04:51;100917.59;;;8.36;56.28
33625;BME280;19962;47.820;1.930;2023-03-03T01:07:18;100929.56;;;8.29;56.82
33625;BME280;19962;47.820;1.930;2023-03-03T01:09:44;100928.31;;;8.38;56.53
33625;BME280;19962;47.820;1.930;2023-03-03T01:12:11;100928.31;;;8.44;56.29
33625;BME280;19962;47.820;1.930;2023-03-03T01:14:38;100929.81;;;8.47;56.57
33625;BME280;19962;47.820;1.930;2023-03-03T01:17:05;100922.22;;;8.29;56.75
33625;BME280;19962;47.820;1.930;2023-03-03T01:19:32;100921.16;;;8.30;56.71
33625;BME280;19962;47.820;1.930;2023-03-03T01:21:58;100930.81;;;8.33;56.68
33625;BME280;19962;47.820;1.930;2023-03-03T01:24:24;100921.19;;;8.43;56.46
33625;BME280;19962;47.820;1.930;2023-03-03T01:26:50;100928.53;;;8.49;56.43
33625;BME280;19962;47.820;1.930;2023-03-03T01:29:16;100928.53;;;8.49;56.42
33625;BME280;19962;47.820;1.930;2023-03-03T01:31:42;100919.91;;;8.46;56.41
33625;BME280;19962;47.820;1.930;2023-03-03T01:34:08;100927.06;;;8.47;56.45
33625;BME280;19962;47.820;1.930;2023-03-03T01:36:35;100930.66;;;8.47;56.21
33625;BME280;19962;47.820;1.930;2023-03-03T01:39:02;100942.88;;;8.51;56.17
33625;BME280;19962;47.820;1.930;2023-03-03T01:41:30;100935.28;;;8.47;56.62
33625;BME280;19962;47.820;1.930;2023-03-03T01:43:59;100932.00;;;8.17;57.35
33625;BME280;19962;47.820;1.930;2023-03-03T01:51:59;100939.44;;;8.30;57.33
33625;BME280;19962;47.820;1.930;2023-03-03T01:55:00;100926.44;;;8.38;57.03
33625;BME280;19962;47.820;1.930;2023-03-03T01:57:32;100930.84;;;8.39;56.89
33625;BME280;19962;47.820;1.930;2023-03-03T02:00:02;100933.53;;;8.26;57.16
33625;BME280;19962;47.820;1.930;2023-03-03T02:02:30;100940.28;;;8.24;57.24
33625;BME280;19962;47.820;1.930;2023-03-03T02:04:56;100925.53;;;8.25;57.24
33625;BME280;19962;47.820;1.930;2023-03-03T02:07:24;100928.22;;;8.18;57.83
33625;BME280;19962;47.820;1.930;2023-03-03T02:10:17;100938.09;;;8.19;57.95
33625;BME280;19962;47.820;1.930;2023-03-03T02:12:53;100930.50;;;8.08;58.36
33625;BME280;19962;47.820;1.930;2023-03-03T02:15:21;100932.16;;;8.03;58.49
33625;BME280;19962;47.820;1.930;2023-03-03T02:17:50;100934.31;;;8.07;58.30
33625;BME280;19962;47.820;1.930;2023-03-03T02:28:33;100929.56;;;7.88;58.88
33625;BME280;19962;47.820;1.930;2023-03-03T02:31:01;100931.19;;;7.70;59.41
33625;BME280;19962;47.820;1.930;2023-03-03T02:33:28;100941.13;;;7.84;58.99
33625;BME280;19962;47.820;1.930;2023-03-03T02:35:54;100931.09;;;8.04;58.55
33625;BME280;19962;47.820;1.930;2023-03-03T02:43:58;100928.78;;;7.94;58.86
33625;BME280;19962;47.820;1.930;2023-03-03T02:46:26;100922.91;;;7.97;58.54
33625;BME280;19962;47.820;1.930;2023-03-03T02:48:53;100926.66;;;7.90;58.85
33625;BME280;19962;47.820;1.930;2023-03-03T02:51:19;100929.44;;;8.03;58.68
33625;BME280;19962;47.820;1.930;2023-03-03T02:53:45;100921.25;;;8.09;58.57
33625;BME280;19962;47.820;1.930;2023-03-03T02:56:11;100915.25;;;8.20;58.04
33625;BME280;19962;47.820;1.930;2023-03-03T02:58:37;100919.78;;;8.07;58.40
33625;BME280;19962;47.820;1.930;2023-03-03T03:01:04;100930.34;;;8.16;58.04
33625;BME280;19962;47.820;1.930;2023-03-03T03:03:30;100918.75;;;8.14;58.17
33625;BME280;19962;47.820;1.930;2023-03-03T03:05:56;100919.44;;;7.76;59.55
33625;BME280;19962;47.820;1.930;2023-03-03T03:08:22;100919.44;;;7.76;59.51
33625;BME280;19962;47.820;1.930;2023-03-03T03:10:48;100921.97;;;7.77;59.59
33625;BME280;19962;47.820;1.930;2023-03-03T03:13:15;100927.31;;;7.92;59.04
33625;BME280;19962;47.820;1.930;2023-03-03T03:15:42;100920.75;;;7.86;59.12
33625;BME280;19962;47.820;1.930;2023-03-03T03:18:09;100937.94;;;7.74;59.57
33625;BME280;19962;47.820;1.930;2023-03-03T03:20:37;100935.03;;;7.88;59.24
33625;BME280;19962;47.820;1.930;2023-03-03T03:23:05;100937.22;;;7.99;58.90
33625;BME280;19962;47.820;1.930;2023-03-03T03:25:31;100940.88;;;7.72;59.61
33625;BME280;19962;47.820;1.930;2023-03-03T03:27:57;100937.09;;;7.73;59.74
33625;BME280;19962;47.820;1.930;2023-03-03T03:30:23;100939.69;;;7.88;59.25
33625;BME280;19962;47.820;1.930;2023-03-03T03:32:49;100933.81;;;7.91;59.05
33625;BME280;19962;47.820;1.930;2023-03-03T03:35:16;100942.63;;;7.86;59.24
33625;BME280;19962;47.820;1.930;2023-03-03T03:37:43;100947.03;;;7.87;59.26
33625;BME280;19962;47.820;1.930;2023-03-03T03:40:10;100944.28;;;7.87;59.06
33625;BME280;19962;47.820;1.930;2023-03-03T03:42:36;100944.75;;;7.91;59.26
33625;BME280;19962;47.820;1.930;2023-03-03T03:45:06;100947.38;;;7.71;59.60
33625;BME280;19962;47.820;1.930;2023-03-03T03:47:32;100942.19;;;7.83;59.50
33625;BME280;19962;47.820;1.930;2023-03-03T03:49:58;100941.72;;;7.79;59.44
33625;BME280;19962;47.820;1.930;2023-03-03T03:52:25;100932.28;;;7.75;59.57
33625;BME280;19962;47.820;1.930;2023-03-03T03:54:51;100948.34;;;7.23;61.38
33625;BME280;19962;47.820;1.930;2023-03-03T03:57:17;100943.22;;;7.41;60.90
33625;BME280;19962;47.820;1.930;2023-03-03T03:59:43;100939.34;;;7.29;61.42
33625;BME280;19962;47.820;1.930;2023-03-03T04:02:09;100944.66;;;7.37;61.27
33625;BME280;19962;47.820;1.930;2023-03-03T04:04:35;100945.75;;;7.15;61.82
33625;BME280;19962;47.820;1.930;2023-03-03T04:07:01;100941.63;;;7.26;61.54
33625;BME280;19962;47.820;1.930;2023-03-03T04:09:27;100944.81;;;7.29;61.44
33625;BME280;19962;47.820;1.930;2023-03-03T04:11:53;100942.81;;;7.44;60.88
33625;BME280;19962;47.820;1.930;2023-03-03T04:14:19;100941.63;;;7.53;60.48
33625;BME280;19962;47.820;1.930;2023-03-03T04:16:46;100938.66;;;7.55;60.33
33625;BME280;19962;47.820;1.930;2023-03-03T04:19:12;100938.94;;;7.32;60.80
33625;BME280;19962;47.820;1.930;2023-03-03T04:21:38;100931.25;;;7.15;61.64
33625;BME280;19962;47.820;1.930;2023-03-03T04:24:04;100928.84;;;7.26;61.20
33625;BME280;19962;47.820;1.930;2023-03-03T04:26:30;100936.22;;;7.32;60.88
33625;BME280;19962;47.820;1.930;2023-03-03T04:28:57;100931.78;;;7.25;61.06
33625;BME280;19962;47.820;1.930;2023-03-03T04:31:24;100928.56;;;7.21;60.92
33625;BME280;19962;47.820;1.930;2023-03-03T04:33:51;100938.06;;;7.25;60.97
33625;BME280;19962;47.820;1.930;2023-03-03T04:36:19;100935.13;;;7.27;60.93
33625;BME280;19962;47.820;1.930;2023-03-03T04:38:45;100941.28;;;7.08;61.49
33625;BME280;19962;47.820;1.930;2023-03-03T04:41:11;100944.59;;;7.03;61.58
33625;BME280;19962;47.820;1.930;2023-03-03T04:43:37;100950.81;;;6.91;61.90
33625;BME280;19962;47.820;1.930;2023-03-03T04:46:04;100947.97;;;6.57;63.25
33625;BME280;19962;47.820;1.930;2023-03-03T04:48:30;100943.75;;;6.54;63.62
33625;BME280;19962;47.820;1.930;2023-03-03T04:50:56;100951.06;;;6.75;62.91
33625;BME280;19962;47.820;1.930;2023-03-03T04:53:22;100949.50;;;6.87;62.53
33625;BME280;19962;47.820;1.930;2023-03-03T04:55:52;100959.13;;;6.41;63.68
33625;BME280;19962;47.820;1.930;2023-03-03T04:58:19;100958.69;;;6.58;63.14
33625;BME280;19962;47.820;1.930;2023-03-03T05:00:46;100954.34;;;6.64;63.12
33625;BME280;19962;47.820;1.930;2023-03-03T05:03:17;100957.19;;;6.56;63.03
33625;BME280;19962;47.820;1.930;2023-03-03T05:05:46;100956.13;;;6.57;63.16
33625;BME280;19962;47.820;1.930;2023-03-03T05:08:13;100963.50;;;6.56;63.22
33625;BME280;19962;47.820;1.930;2023-03-03T05:10:39;100951.91;;;6.54;63.24
33625;BME280;19962;47.820;1.930;2023-03-03T05:13:06;100957.69;;;6.66;62.90
33625;BME280;19962;47.820;1.930;2023-03-03T05:15:33;100958.03;;;6.56;63.15
33625;BME280;19962;47.820;1.930;2023-03-03T05:17:59;100971.28;;;6.59;62.86
33625;BME280;19962;47.820;1.930;2023-03-03T05:20:25;100961.41;;;6.58;63.00
33625;BME280;19962;47.820;1.930;2023-03-03T05:22:51;100975.69;;;6.39;63.57
33625;BME280;19962;47.820;1.930;2023-03-03T05:25:18;100978.09;;;6.49;63.34
33625;BME280;19962;47.820;1.930;2023-03-03T05:27:44;100975.44;;;6.55;63.05
33625;BME280;19962;47.820;1.930;2023-03-03T05:30:11;100973.66;;;6.27;63.93
33625;BME280;19962;47.820;1.930;2023-03-03T05:32:37;100977.88;;;6.50;63.62
33625;BME280;19962;47.820;1.930;2023-03-03T05:35:04;100980.59;;;6.50;63.25
33625;BME280;19962;47.820;1.930;2023-03-03T05:37:31;100976.94;;;6.58;62.85
33625;BME280;19962;47.820;1.930;2023-03-03T05:39:57;100984.91;;;6.38;63.38
33625;BME280;19962;47.820;1.930;2023-03-03T05:42:23;100980.88;;;6.34;63.58
33625;BME280;19962;47.820;1.930;2023-03-03T05:44:49;100984.50;;;6.41;63.33
33625;BME280;19962;47.820;1.930;2023-03-03T05:47:15;100986.38;;;6.41;63.31
33625;BME280;19962;47.820;1.930;2023-03-03T05:49:41;100984.91;;;6.38;63.00
33625;BME280;19962;47.820;1.930;2023-03-03T05:52:07;100983.00;;;6.39;63.23
33625;BME280;19962;47.820;1.930;2023-03-03T05:54:34;100992.38;;;6.51;63.20
33625;BME280;19962;47.820;1.930;2023-03-03T05:57:00;100986.47;;;6.68;62.50
33625;BME280;19962;47.820;1.930;2023-03-03T05:59:26;100980.81;;;6.70;62.21
33625;BME280;19962;47.820;1.930;2023-03-03T06:01:52;100998.41;;;6.67;62.23
33625;BME280;19962;47.820;1.930;2023-03-03T06:04:18;100991.38;;;6.58;62.13
33625;BME280;19962;47.820;1.930;2023-03-03T06:06:44;101007.75;;;6.58;62.22
33625;BME280;19962;47.820;1.930;2023-03-03T06:09:11;101010.06;;;6.40;62.72
33625;BME280;19962;47.820;1.930;2023-03-03T06:11:37;101013.94;;;6.31;63.22
33625;BME280;19962;47.820;1.930;2023-03-03T06:14:03;101008.13;;;6.34;63.02
33625;BME280;19962;47.820;1.930;2023-03-03T06:16:29;101011.38;;;6.09;63.82
33625;BME280;19962;47.820;1.930;2023-03-03T06:18:55;101016.16;;;6.07;63.98
33625;BME280;19962;47.820;1.930;2023-03-03T06:21:21;101025.16;;;5.78;64.83
33625;BME280;19962;47.820;1.930;2023-03-03T06:23:47;101018.78;;;5.57;65.49
33625;BME280;19962;47.820;1.930;2023-03-03T06:26:13;101022.91;;;5.67;65.46
33625;BME280;19962;47.820;1.930;2023-03-03T06:28:40;101028.28;;;5.75;65.37
33625;BME280;19962;47.820;1.930;2023-03-03T06:31:06;101027.31;;;5.68;65.39
33625;BME280;19962;47.820;1.930;2023-03-03T06:33:32;101032.13;;;5.81;65.19
33625;BME280;19962;47.820;1.930;2023-03-03T06:35:58;101023.56;;;5.69;65.46
33625;BME280;19962;47.820;1.930;2023-03-03T06:38:24;101027.19;;;5.47;66.07
33625;BME280;19962;47.820;1.930;2023-03-03T06:40:50;101033.03;;;5.73;65.85
33625;BME280;19962;47.820;1.930;2023-03-03T06:43:16;101042.09;;;5.88;64.91
33625;BME280;19962;47.820;1.930;2023-03-03T06:45:44;101032.03;;;6.03;64.35
33625;BME280;19962;47.820;1.930;2023-03-03T06:48:11;101043.28;;;6.00;64.40
33625;BME280;19962;47.820;1.930;2023-03-03T06:50:37;101046.38;;;6.12;64.11
33625;BME280;19962;47.820;1.930;2023-03-03T06:53:15;101039.34;;;6.17;63.81
33625;BME280;19962;47.820;1.930;2023-03-03T06:55:41;101057.94;;;5.99;64.20
33625;BME280;19962;47.820;1.930;2023-03-03T06:58:18;101044.59;;;5.75;65.08
33625;BME280;19962;47.820;1.930;2023-03-03T07:01:09;101051.09;;;5.89;64.75
33625;BME280;19962;47.820;1.930;2023-03-03T07:03:35;101053.63;;;5.90;65.00
33625;BME280;19962;47.820;1.930;2023-03-03T07:06:07;101057.69;;;5.94;64.90
33625;BME280;19962;47.820;1.930;2023-03-03T07:08:39;101053.38;;;5.85;64.90
33625;BME280;19962;47.820;1.930;2023-03-03T07:11:10;101061.13;;;6.03;64.76
33625;BME280;19962;47.820;1.930;2023-03-03T07:13:41;101065.00;;;6.08;64.34
33625;BME280;19962;47.820;1.930;2023-03-03T07:16:11;101073.56;;;5.39;66.83
33625;BME280;19962;47.820;1.930;2023-03-03T07:18:54;101063.63;;;5.61;66.55
33625;BME280;19962;47.820;1.930;2023-03-03T07:21:33;101068.59;;;5.72;66.21
33625;BME280;19962;47.820;1.930;2023-03-03T07:26:38;101066.69;;;5.80;65.59
33625;BME280;19962;47.820;1.930;2023-03-03T07:29:25;101071.03;;;5.89;65.73
33625;BME280;19962;47.820;1.930;2023-03-03T07:31:52;101065.72;;;5.73;65.97
33625;BME280;19962;47.820;1.930;2023-03-03T07:34:39;101068.19;;;5.83;66.32
33625;BME280;19962;47.820;1.930;2023-03-03T07:37:29;101072.41;;;5.85;65.81
33625;BME280;19962;47.820;1.930;2023-03-03T07:39:57;101077.38;;;6.11;65.15
33625;BME280;19962;47.820;1.930;2023-03-03T07:42:26;101074.47;;;5.83;66.00
33625;BME280;19962;47.820;1.930;2023-03-03T07:44:56;101077.91;;;5.48;67.30
33625;BME280;19962;47.820;1.930;2023-03-03T07:47:26;101075.50;;;5.31;68.10
33625;BME280;19962;47.820;1.930;2023-03-03T07:49:54;101077.44;;;5.59;67.78
33625;BME280;19962;47.820;1.930;2023-03-03T07:54:59;101087.00;;;5.55;67.98
33625;BME280;19962;47.820;1.930;2023-03-03T07:57:37;101094.16;;;5.71;68.08
33625;BME280;19962;47.820;1.930;2023-03-03T08:02:44;101097.06;;;5.69;67.90
33625;BME280;19962;47.820;1.930;2023-03-03T08:05:31;101095.44;;;5.60;68.09
33625;BME280;19962;47.820;1.930;2023-03-03T08:10:52;101100.09;;;5.37;69.73
33625;BME280;19962;47.820;1.930;2023-03-03T08:13:21;101105.53;;;5.37;69.65
33625;BME280;19962;47.820;1.930;2023-03-03T08:15:52;101104.22;;;5.70;68.75
33625;BME280;19962;47.820;1.930;2023-03-03T08:18:42;101111.31;;;6.08;67.83
33625;BME280;19962;47.820;1.930;2023-03-03T08:23:43;101109.13;;;6.18;66.58
33625;BME280;19962;47.820;1.930;2023-03-03T08:26:10;101111.03;;;6.18;66.67
33625;BME280;19962;47.820;1.930;2023-03-03T08:28:39;101122.94;;;6.31;66.63
33625;BME280;19962;47.820;1.930;2023-03-03T08:31:05;101114.56;;;6.33;66.77
33625;BME280;19962;47.820;1.930;2023-03-03T08:33:31;101125.66;;;6.46;66.06
33625;BME280;19962;47.820;1.930;2023-03-03T08:35:57;101132.97;;;6.45;65.86
33625;BME280;19962;47.820;1.930;2023-03-03T08:38:23;101125.56;;;6.39;66.34
33625;BME280;19962;47.820;1.930;2023-03-03T08:40:49;101127.88;;;6.57;66.18
33625;BME280;19962;47.820;1.930;2023-03-03T08:43:16;101135.91;;;6.44;66.21
33625;BME280;19962;47.820;1.930;2023-03-03T08:45:47;101129.19;;;6.61;66.22
33625;BME280;19962;47.820;1.930;2023-03-03T08:48:14;101131.59;;;6.85;65.51
33625;BME280;19962;47.820;1.930;2023-03-03T08:50:41;101132.31;;;6.93;64.93
33625;BME280;19962;47.820;1.930;2023-03-03T08:53:08;101145.69;;;6.88;65.08
33625;BME280;19962;47.820;1.930;2023-03-03T08:55:34;101139.53;;;6.80;64.91
33625;BME280;19962;47.820;1.930;2023-03-03T08:58:00;101136.66;;;6.88;64.85
33625;BME280;19962;47.820;1.930;2023-03-03T09:00:27;101142.75;;;7.04;64.67
33625;BME280;19962;47.820;1.930;2023-03-03T09:02:54;101140.13;;;6.96;64.48
33625;BME280;19962;47.820;1.930;2023-03-03T09:05:20;101138.03;;;6.98;64.78
33625;BME280;19962;47.820;1.930;2023-03-03T09:07:47;101142.88;;;7.17;64.52
33625;BME280;19962;47.820;1.930;2023-03-03T09:10:17;101141.31;;;7.29;63.91
33625;BME280;19962;47.820;1.930;2023-03-03T09:12:46;101144.16;;;7.21;64.25
33625;BME280;19962;47.820;1.930;2023-03-03T09:15:34;101148.72;;;7.35;63.73
33625;BME280;19962;47.820;1.930;2023-03-03T09:18:30;101144.28;;;7.34;63.48
33625;BME280;19962;47.820;1.930;2023-03-03T09:20:57;101148.25;;;7.53;63.32
33625;BME280;19962;47.820;1.930;2023-03-03T09:25:58;101147.16;;;7.47;62.87
33625;BME280;19962;47.820;1.930;2023-03-03T09:28:32;101152.53;;;7.41;63.23
33625;BME280;19962;47.820;1.930;2023-03-03T09:31:00;101155.75;;;7.44;63.33
33625;BME280;19962;47.820;1.930;2023-03-03T09:34:01;101157.16;;;7.61;62.88
33625;BME280;19962;47.820;1.930;2023-03-03T09:36:28;101151.41;;;7.77;62.69
33625;BME280;19962;47.820;1.930;2023-03-03T09:38:56;101158.25;;;7.67;62.43
33625;BME280;19962;47.820;1.930;2023-03-03T09:41:45;101163.41;;;7.55;62.46
33625;BME280;19962;47.820;1.930;2023-03-03T09:44:36;101162.50;;;7.48;63.40
33625;BME280;19962;47.820;1.930;2023-03-03T10:06:24;101180.56;;;7.49;64.61
33625;BME280;19962;47.820;1.930;2023-03-03T10:09:02;101176.00;;;7.56;64.21
33625;BME280;19962;47.820;1.930;2023-03-03T10:14:42;101170.09;;;8.01;62.93
33625;BME280;19962;47.820;1.930;2023-03-03T10:17:44;101163.44;;;8.10;62.50
33625;BME280;19962;47.820;1.930;2023-03-03T10:20:23;101167.44;;;8.14;62.20
33625;BME280;19962;47.820;1.930;2023-03-03T10:22:54;101156.13;;;7.90;62.75
33625;BME280;19962;47.820;1.930;2023-03-03T10:25:42;101162.66;;;8.16;62.23
33625;BME280;19962;47.820;1.930;2023-03-03T10:31:05;101169.53;;;8.33;61.21
33625;BME280;19962;47.820;1.930;2023-03-03T10:42:09;101173.00;;;8.55;61.13
33625;BME280;19962;47.820;1.930;2023-03-03T10:45:03;101170.88;;;8.50;59.98
33625;BME280;19962;47.820;1.930;2023-03-03T10:56:28;101178.00;;;8.45;60.26
33625;BME280;19962;47.820;1.930;2023-03-03T10:59:03;101186.78;;;8.40;60.66
33625;BME280;19962;47.820;1.930;2023-03-03T11:01:55;101173.25;;;8.26;60.93
33625;BME280;19962;47.820;1.930;2023-03-03T11:04:43;101177.53;;;8.41;61.50
33625;BME280;19962;47.820;1.930;2023-03-03T11:07:39;101183.19;;;8.74;60.62
33625;BME280;19962;47.820;1.930;2023-03-03T11:10:42;101170.66;;;8.92;59.60
33625;BME280;19962;47.820;1.930;2023-03-03T11:13:54;101178.25;;;8.97;59.03
33625;BME280;19962;47.820;1.930;2023-03-03T11:18:51;101170.50;;;9.00;58.89
33625;BME280;19962;47.820;1.930;2023-03-03T11:21:46;101168.41;;;9.15;59.39
33625;BME280;19962;47.820;1.930;2023-03-03T11:29:33;101167.59;;;9.21;58.36
33625;BME280;19962;47.820;1.930;2023-03-03T11:34:55;101153.72;;;9.42;57.18
33625;BME280;19962;47.820;1.930;2023-03-03T11:40:23;101160.91;;;9.56;57.21
33625;BME280;19962;47.820;1.930;2023-03-03T11:42:59;101151.00;;;9.55;56.87
33625;BME280;19962;47.820;1.930;2023-03-03T11:45:43;101151.03;;;9.62;56.87
33625;BME280;19962;47.820;1.930;2023-03-03T11:51:07;101149.75;;;9.64;56.95
33625;BME280;19962;47.820;1.930;2023-03-03T11:54:08;101153.13;;;9.66;56.85
33625;BME280;19962;47.820;1.930;2023-03-03T11:56:41;101145.97;;;9.78;56.84
33625;BME280;19962;47.820;1.930;2023-03-03T12:10:26;101139.66;;;9.78;56.37
33625;BME280;19962;47.820;1.930;2023-03-03T12:13:02;101143.88;;;9.61;57.09
33625;BME280;19962;47.820;1.930;2023-03-03T12:18:33;101133.31;;;9.84;56.71
33625;BME280;19962;47.820;1.930;2023-03-03T12:35:28;101115.59;;;10.19;55.63
33625;BME280;19962;47.820;1.930;2023-03-03T12:40:40;101107.13;;;10.34;54.64
33625;BME280;19962;47.820;1.930;2023-03-03T12:43:44;101104.78;;;10.44;54.87
33625;BME280;19962;47.820;1.930;2023-03-03T12:48:57;101100.97;;;10.45;54.71
33625;BME280;19962;47.820;1.930;2023-03-03T12:51:45;101106.66;;;10.43;55.03
33625;BME280;19962;47.820;1.930;2023-03-03T13:00:22;101094.88;;;10.36;54.34
33625;BME280;19962;47.820;1.930;2023-03-03T13:02:57;101091.47;;;10.47;54.42
33625;BME280;19962;47.820;1.930;2023-03-03T13:05:50;101093.09;;;10.61;54.07
33625;BME280;19962;47.820;1.930;2023-03-03T13:08:45;101086.50;;;10.69;54.04
33625;BME280;19962;47.820;1.930;2023-03-03T13:12:34;101092.00;;;10.69;54.20
33625;BME280;19962;47.820;1.930;2023-03-03T13:14:49;101085.75;;;10.55;54.48
33625;BME280;19962;47.820;1.930;2023-03-03T13:20:18;101078.72;;;10.66;54.18
33625;BME280;19962;47.820;1.930;2023-03-03T13:31:07;101074.69;;;10.75;54.22
33625;BME280;19962;47.820;1.930;2023-03-03T13:33:37;101066.25;;;10.70;54.43
33625;BME280;19962;47.820;1.930;2023-03-03T13:36:10;101065.13;;;10.84;54.15
33625;BME280;19962;47.820;1.930;2023-03-03T13:39:03;101065.69;;;10.92;54.06
33625;BME280;19962;47.820;1.930;2023-03-03T13:44:21;101071.78;;;11.01;53.47
33625;BME280;19962;47.820;1.930;2023-03-03T13:52:30;101065.66;;;10.99;54.09
33625;BME280;19962;47.820;1.930;2023-03-03T13:55:16;101063.00;;;11.17;53.65
33625;BME280;19962;47.820;1.930;2023-03-03T13:57:50;101064.06;;;11.16;53.25
33625;BME280;19962;47.820;1.930;2023-03-03T14:06:15;101058.06;;;11.32;53.00
33625;BME280;19962;47.820;1.930;2023-03-03T14:08:50;101057.38;;;11.36;52.71
33625;BME280;19962;47.820;1.930;2023-03-03T14:14:29;101056.53;;;11.36;52.84
33625;BME280;19962;47.820;1.930;2023-03-03T14:17:06;101054.34;;;11.44;52.67
33625;BME280;19962;47.820;1.930;2023-03-03T14:19:48;101050.31;;;11.47;52.52
33625;BME280;19962;47.820;1.930;2023-03-03T14:22:17;101047.06;;;11.32;52.96
33625;BME280;19962;47.820;1.930;2023-03-03T14:25:08;101042.97;;;11.41;52.53
33625;BME280;19962;47.820;1.930;2023-03-03T14:35:34;101043.41;;;11.38;52.47
33625;BME280;19962;47.820;1.930;2023-03-03T14:38:14;101042.56;;;11.37;52.49
33625;BME280;19962;47.820;1.930;2023-03-03T14:40:43;101044.38;;;11.50;52.31
33625;BME280;19962;47.820;1.930;2023-03-03T14:43:58;101046.28;;;11.49;52.00
33625;BME280;19962;47.820;1.930;2023-03-03T14:46:37;101041.38;;;11.51;52.27
33625;BME280;19962;47.820;1.930;2023-03-03T14:49:12;101042.50;;;11.44;51.98
33625;BME280;19962;47.820;1.930;2023-03-03T14:51:43;101044.97;;;11.52;51.61
33625;BME280;19962;47.820;1.930;2023-03-03T14:59:27;101034.16;;;11.57;51.92
33625;BME280;19962;47.820;1.930;2023-03-03T15:04:26;101032.47;;;11.56;51.67
33625;BME280;19962;47.820;1.930;2023-03-03T15:06:54;101027.38;;;11.59;51.62
33625;BME280;19962;47.820;1.930;2023-03-03T15:09:39;101032.84;;;11.66;51.39
33625;BME280;19962;47.820;1.930;2023-03-03T15:12:33;101019.94;;;11.66;51.39
33625;BME280;19962;47.820;1.930;2023-03-03T15:23:29;101022.84;;;11.71;50.84
33625;BME280;19962;47.820;1.930;2023-03-03T15:26:19;101019.88;;;11.73;50.84
33625;BME280;19962;47.820;1.930;2023-03-03T15:31:53;101029.22;;;11.72;51.04
33625;BME280;19962;47.820;1.930;2023-03-03T15:34:26;101023.47;;;11.73;50.66
33625;BME280;19962;47.820;1.930;2023-03-03T15:45:20;101025.81;;;11.70;50.58
33625;BME280;19962;47.820;1.930;2023-03-03T15:53:44;101025.97;;;11.75;50.03
33625;BME280;19962;47.820;1.930;2023-03-03T15:59:40;101026.25;;;11.67;49.78
33625;BME280;19962;47.820;1.930;2023-03-03T16:02:22;101031.63;;;11.55;49.42
33625;BME280;19962;47.820;1.930;2023-03-03T16:05:00;101033.75;;;11.60;50.10
33625;BME280;19962;47.820;1.930;2023-03-03T16:07:45;101031.81;;;11.60;49.89
33625;BME280;19962;47.820;1.930;2023-03-03T16:19:02;101036.78;;;11.45;49.19
33625;BME280;19962;47.820;1.930;2023-03-03T16:21:44;101040.19;;;11.47;49.71
33625;BME280;19962;47.820;1.930;2023-03-03T16:27:05;101046.50;;;11.48;49.76
33625;BME280;19962;47.820;1.930;2023-03-03T16:32:28;101048.63;;;11.46;49.90
33625;BME280;19962;47.820;1.930;2023-03-03T16:35:01;101048.16;;;11.49;49.94
33625;BME280;19962;47.820;1.930;2023-03-03T16:38:01;101052.09;;;11.35;50.24
33625;BME280;19962;47.820;1.930;2023-03-03T16:40:49;101056.09;;;11.39;49.89
33625;BME280;19962;47.820;1.930;2023-03-03T16:46:33;101059.25;;;11.36;49.68
33625;BME280;19962;47.820;1.930;2023-03-03T16:49:26;101063.97;;;11.29;49.94
33625;BME280;19962;47.820;1.930;2023-03-03T16:52:14;101067.97;;;11.33;50.05
33625;BME280;19962;47.820;1.930;2023-03-03T16:54:52;101069.88;;;11.32;49.74
33625;BME280;19962;47.820;1.930;2023-03-03T17:05:26;101085.38;;;11.20;50.25
33625;BME280;19962;47.820;1.930;2023-03-03T17:11:43;101091.38;;;11.11;50.22
33625;BME280;19962;47.820;1.930;2023-03-03T17:17:41;101101.75;;;11.02;50.09
33625;BME280;19962;47.820;1.930;2023-03-03T17:23:07;101102.66;;;10.90;50.05
33625;BME280;19962;47.820;1.930;2023-03-03T17:31:17;101120.44;;;10.81;49.46
33625;BME280;19962;47.820;1.930;2023-03-03T17:39:03;101129.13;;;10.71;49.53
33625;BME280;19962;47.820;1.930;2023-03-03T17:42:19;101134.44;;;10.66;49.10
33625;BME280;19962;47.820;1.930;2023-03-03T17:47:18;101130.22;;;10.64;49.34
33625;BME280;19962;47.820;1.930;2023-03-03T17:50:22;101133.44;;;10.61;48.90